sensor_id;sensor_type;location;lat;lon;timestamp;P1;durP1;ratioP1;P2;durP2;ratioP2
26574;SDS011;67165;50.256;10.978;2023-02-19T00:01:08;11.23;;;8.50;;
26574;SDS011;67165;50.256;10.978;2023-02-19T00:03:41;11.77;;;9.00;;
26574;SDS011;67165;50.256;10.978;2023-02-19T00:06:11;14.40;;;9.27;;
26574;SDS011;67165;50.256;10.978;2023-02-19T00:08:37;10.60;;;8.65;;
26574;SDS011;67165;50.256;10.978;2023-02-19T00:11:05;11.48;;;8.60;;
26574;SDS011;67165;50.256;10.978;2023-02-19T00:13:39;12.25;;;9.25;;
26574;SDS011;67165;50.256;10.978;2023-02-19T00:18:33;12.38;;;9.02;;
26574;SDS011;67165;50.256;10.978;2023-02-19T00:20:59;12.07;;;9.43;;
26574;SDS011;67165;50.256;10.978;2023-02-19T00:23:25;12.63;;;9.65;;
26574;SDS011;67165;50.256;10.978;2023-02-19T00:25:52;11.93;;;9.40;;
26574;SDS011;67165;50.256;10.978;2023-02-19T00:28:18;13.65;;;9.93;;
26574;SDS011;67165;50.256;10.978;2023-02-19T00:30:43;11.52;;;9.35;;
26574;SDS011;67165;50.256;10.978;2023-02-19T00:33:09;13.02;;;9.82;;
26574;SDS011;67165;50.256;10.978;2023-02-19T00:35:35;12.23;;;9.55;;
26574;SDS011;67165;50.256;10.978;2023-02-19T00:38:00;15.38;;;9.80;;
26574;SDS011;67165;50.256;10.978;2023-02-19T00:40:26;16.77;;;10.02;;
26574;SDS011;67165;50.256;10.978;2023-02-19T00:42:52;13.13;;;9.93;;
26574;SDS011;67165;50.256;10.978;2023-02-19T00:45:18;12.48;;;10.35;;
26574;SDS011;67165;50.256;10.978;2023-02-19T00:47:43;11.43;;;9.85;;
26574;SDS011;67165;50.256;10.978;2023-02-19T00:50:09;14.65;;;10.10;;
26574;SDS011;67165;50.256;10.978;2023-02-19T00:52:35;14.43;;;10.27;;
26574;SDS011;67165;50.256;10.978;2023-02-19T00:55:00;13.93;;;10.20;;
26574;SDS011;67165;50.256;10.978;2023-02-19T00:57:26;12.48;;;9.90;;
26574;SDS011;67165;50.256;10.978;2023-02-19T00:59:52;12.98;;;9.85;;
26574;SDS011;67165;50.256;10.978;2023-02-19T01:02:17;12.00;;;9.90;;
26574;SDS011;67165;50.256;10.978;2023-02-19T01:04:43;11.38;;;9.70;;
26574;SDS011;67165;50.256;10.978;2023-02-19T01:07:09;11.13;;;9.50;;
26574;SDS011;67165;50.256;10.978;2023-02-19T01:09:34;13.77;;;10.30;;
26574;SDS011;67165;50.256;10.978;2023-02-19T01:12:00;13.05;;;9.50;;
26574;SDS011;67165;50.256;10.978;2023-02-19T01:14:26;12.35;;;9.60;;
26574;SDS011;67165;50.256;10.978;2023-02-19T01:16:51;11.68;;;9.65;;
26574;SDS011;67165;50.256;10.978;2023-02-19T01:19:17;11.65;;;9.55;;
26574;SDS011;67165;50.256;10.978;2023-02-19T01:21:43;12.45;;;9.55;;
26574;SDS011;67165;50.256;10.978;2023-02-19T01:24:08;10.98;;;9.30;;
26574;SDS011;67165;50.256;10.978;2023-02-19T01:26:34;11.32;;;8.60;;
26574;SDS011;67165;50.256;10.978;2023-02-19T01:29:00;11.13;;;8.95;;
26574;SDS011;67165;50.256;10.978;2023-02-19T01:31:26;12.23;;;9.02;;
26574;SDS011;67165;50.256;10.978;2023-02-19T01:33:53;11.55;;;9.52;;
26574;SDS011;67165;50.256;10.978;2023-02-19T01:36:21;14.77;;;9.30;;
26574;SDS011;67165;50.256;10.978;2023-02-19T01:38:47;10.55;;;8.85;;
26574;SDS011;67165;50.256;10.978;2023-02-19T01:41:15;10.93;;;9.05;;
26574;SDS011;67165;50.256;10.978;2023-02-19T01:43:54;14.00;;;8.75;;
26574;SDS011;67165;50.256;10.978;2023-02-19T01:46:31;11.43;;;8.60;;
26574;SDS011;67165;50.256;10.978;2023-02-19T01:49:03;10.10;;;7.88;;
26574;SDS011;67165;50.256;10.978;2023-02-19T01:51:32;11.23;;;8.63;;
26574;SDS011;67165;50.256;10.978;2023-02-19T01:54:04;12.32;;;8.60;;
26574;SDS011;67165;50.256;10.978;2023-02-19T01:56:33;13.57;;;8.60;;
26574;SDS011;67165;50.256;10.978;2023-02-19T01:59:02;9.60;;;8.48;;
26574;SDS011;67165;50.256;10.978;2023-02-19T02:01:29;10.60;;;8.18;;
26574;SDS011;67165;50.256;10.978;2023-02-19T02:03:55;11.63;;;8.18;;
26574;SDS011;67165;50.256;10.978;2023-02-19T02:06:23;11.10;;;8.23;;
26574;SDS011;67165;50.256;10.978;2023-02-19T02:08:53;10.88;;;8.63;;
26574;SDS011;67165;50.256;10.978;2023-02-19T02:11:47;12.55;;;8.25;;
26574;SDS011;67165;50.256;10.978;2023-02-19T02:14:14;11.15;;;8.00;;
26574;SDS011;67165;50.256;10.978;2023-02-19T02:27:30;10.38;;;8.23;;
26574;SDS011;67165;50.256;10.978;2023-02-19T02:35:17;10.65;;;8.32;;
26574;SDS011;67165;50.256;10.978;2023-02-19T02:37:49;11.32;;;8.35;;
26574;SDS011;67165;50.256;10.978;2023-02-19T02:40:19;10.05;;;7.32;;
26574;SDS011;67165;50.256;10.978;2023-02-19T02:42:46;8.57;;;7.25;;
26574;SDS011;67165;50.256;10.978;2023-02-19T02:48:09;11.02;;;7.65;;
26574;SDS011;67165;50.256;10.978;2023-02-19T02:53:10;10.95;;;7.60;;
26574;SDS011;67165;50.256;10.978;2023-02-19T02:55:59;9.60;;;7.03;;
26574;SDS011;67165;50.256;10.978;2023-02-19T02:58:26;9.95;;;8.13;;
26574;SDS011;67165;50.256;10.978;2023-02-19T03:00:55;9.18;;;7.78;;
26574;SDS011;67165;50.256;10.978;2023-02-19T03:03:44;10.68;;;7.88;;
26574;SDS011;67165;50.256;10.978;2023-02-19T03:06:14;12.75;;;7.55;;
26574;SDS011;67165;50.256;10.978;2023-02-19T03:08:47;13.15;;;7.82;;
26574;SDS011;67165;50.256;10.978;2023-02-19T03:11:17;9.15;;;7.50;;
26574;SDS011;67165;50.256;10.978;2023-02-19T03:16:54;9.30;;;7.57;;
26574;SDS011;67165;50.256;10.978;2023-02-19T03:19:44;9.80;;;7.80;;
26574;SDS011;67165;50.256;10.978;2023-02-19T03:22:18;10.90;;;7.47;;
26574;SDS011;67165;50.256;10.978;2023-02-19T03:24:51;9.93;;;7.57;;
26574;SDS011;67165;50.256;10.978;2023-02-19T03:27:43;10.18;;;7.65;;
26574;SDS011;67165;50.256;10.978;2023-02-19T03:30:11;10.52;;;7.85;;
26574;SDS011;67165;50.256;10.978;2023-02-19T03:32:45;10.18;;;7.97;;
26574;SDS011;67165;50.256;10.978;2023-02-19T03:35:20;11.75;;;7.80;;
26574;SDS011;67165;50.256;10.978;2023-02-19T03:37:51;9.48;;;7.97;;
26574;SDS011;67165;50.256;10.978;2023-02-19T03:40:23;10.32;;;7.78;;
26574;SDS011;67165;50.256;10.978;2023-02-19T03:43:05;9.70;;;7.45;;
26574;SDS011;67165;50.256;10.978;2023-02-19T03:46:29;13.20;;;7.60;;
26574;SDS011;67165;50.256;10.978;2023-02-19T03:53:51;8.95;;;7.30;;
26574;SDS011;67165;50.256;10.978;2023-02-19T03:56:29;8.85;;;7.00;;
26574;SDS011;67165;50.256;10.978;2023-02-19T03:59:01;7.13;;;6.38;;
26574;SDS011;67165;50.256;10.978;2023-02-19T04:01:43;9.23;;;6.60;;
26574;SDS011;67165;50.256;10.978;2023-02-19T04:06:49;7.35;;;6.47;;
26574;SDS011;67165;50.256;10.978;2023-02-19T04:09:20;8.93;;;6.47;;
26574;SDS011;67165;50.256;10.978;2023-02-19T04:11:47;6.82;;;5.90;;
26574;SDS011;67165;50.256;10.978;2023-02-19T04:14:28;7.30;;;5.82;;
26574;SDS011;67165;50.256;10.978;2023-02-19T04:17:19;6.85;;;5.90;;
26574;SDS011;67165;50.256;10.978;2023-02-19T04:19:59;7.35;;;5.97;;
26574;SDS011;67165;50.256;10.978;2023-02-19T04:22:30;7.05;;;5.80;;
26574;SDS011;67165;50.256;10.978;2023-02-19T04:24:55;6.32;;;5.70;;
26574;SDS011;67165;50.256;10.978;2023-02-19T04:27:21;6.65;;;5.55;;
26574;SDS011;67165;50.256;10.978;2023-02-19T04:29:47;6.47;;;5.30;;
26574;SDS011;67165;50.256;10.978;2023-02-19T04:32:13;6.38;;;5.22;;
26574;SDS011;67165;50.256;10.978;2023-02-19T04:34:39;5.80;;;4.93;;
26574;SDS011;67165;50.256;10.978;2023-02-19T04:37:04;5.65;;;4.78;;
26574;SDS011;67165;50.256;10.978;2023-02-19T04:39:30;6.68;;;5.25;;
26574;SDS011;67165;50.256;10.978;2023-02-19T04:41:56;5.70;;;5.10;;
26574;SDS011;67165;50.256;10.978;2023-02-19T04:44:22;5.38;;;4.30;;
26574;SDS011;67165;50.256;10.978;2023-02-19T04:46:47;7.53;;;5.03;;
26574;SDS011;67165;50.256;10.978;2023-02-19T04:49:13;5.72;;;4.63;;
26574;SDS011;67165;50.256;10.978;2023-02-19T04:51:39;4.72;;;4.22;;
26574;SDS011;67165;50.256;10.978;2023-02-19T04:54:05;5.30;;;4.30;;
26574;SDS011;67165;50.256;10.978;2023-02-19T04:56:31;5.45;;;4.43;;
26574;SDS011;67165;50.256;10.978;2023-02-19T04:58:56;5.35;;;4.85;;
26574;SDS011;67165;50.256;10.978;2023-02-19T05:01:22;6.30;;;4.68;;
26574;SDS011;67165;50.256;10.978;2023-02-19T05:03:48;5.28;;;4.20;;
26574;SDS011;67165;50.256;10.978;2023-02-19T05:06:14;6.35;;;4.53;;
26574;SDS011;67165;50.256;10.978;2023-02-19T05:08:40;5.57;;;4.97;;
26574;SDS011;67165;50.256;10.978;2023-02-19T05:11:07;6.93;;;5.18;;
26574;SDS011;67165;50.256;10.978;2023-02-19T05:13:34;6.40;;;4.63;;
26574;SDS011;67165;50.256;10.978;2023-02-19T05:16:01;5.20;;;4.68;;
26574;SDS011;67165;50.256;10.978;2023-02-19T05:18:29;6.30;;;4.90;;
26574;SDS011;67165;50.256;10.978;2023-02-19T05:20:56;5.70;;;4.65;;
26574;SDS011;67165;50.256;10.978;2023-02-19T05:23:23;4.95;;;4.45;;
26574;SDS011;67165;50.256;10.978;2023-02-19T05:25:49;4.65;;;3.92;;
26574;SDS011;67165;50.256;10.978;2023-02-19T05:28:15;5.50;;;4.10;;
26574;SDS011;67165;50.256;10.978;2023-02-19T05:30:41;4.35;;;3.83;;
26574;SDS011;67165;50.256;10.978;2023-02-19T05:33:11;4.45;;;3.78;;
26574;SDS011;67165;50.256;10.978;2023-02-19T05:35:41;4.85;;;3.50;;
26574;SDS011;67165;50.256;10.978;2023-02-19T05:38:09;4.60;;;3.70;;
26574;SDS011;67165;50.256;10.978;2023-02-19T05:40:35;4.97;;;3.35;;
26574;SDS011;67165;50.256;10.978;2023-02-19T05:43:02;3.75;;;3.30;;
26574;SDS011;67165;50.256;10.978;2023-02-19T05:45:28;3.10;;;2.80;;
26574;SDS011;67165;50.256;10.978;2023-02-19T05:47:54;3.42;;;2.60;;
26574;SDS011;67165;50.256;10.978;2023-02-19T05:50:19;5.63;;;3.28;;
26574;SDS011;67165;50.256;10.978;2023-02-19T05:52:45;3.67;;;3.10;;
26574;SDS011;67165;50.256;10.978;2023-02-19T05:55:11;3.92;;;3.28;;
26574;SDS011;67165;50.256;10.978;2023-02-19T05:57:43;4.63;;;3.60;;
26574;SDS011;67165;50.256;10.978;2023-02-19T06:02:37;3.25;;;2.95;;
26574;SDS011;67165;50.256;10.978;2023-02-19T06:05:03;5.47;;;3.90;;
26574;SDS011;67165;50.256;10.978;2023-02-19T06:07:29;4.43;;;3.60;;
26574;SDS011;67165;50.256;10.978;2023-02-19T06:09:55;4.40;;;4.00;;
26574;SDS011;67165;50.256;10.978;2023-02-19T06:12:21;4.88;;;3.70;;
26574;SDS011;67165;50.256;10.978;2023-02-19T06:14:47;4.18;;;3.72;;
26574;SDS011;67165;50.256;10.978;2023-02-19T06:17:12;4.60;;;4.20;;
26574;SDS011;67165;50.256;10.978;2023-02-19T06:19:38;5.55;;;4.07;;
26574;SDS011;67165;50.256;10.978;2023-02-19T06:22:04;5.15;;;3.90;;
26574;SDS011;67165;50.256;10.978;2023-02-19T06:24:30;4.65;;;4.25;;
26574;SDS011;67165;50.256;10.978;2023-02-19T06:26:55;5.50;;;4.13;;
26574;SDS011;67165;50.256;10.978;2023-02-19T06:29:22;4.90;;;3.92;;
26574;SDS011;67165;50.256;10.978;2023-02-19T06:31:48;5.15;;;4.32;;
26574;SDS011;67165;50.256;10.978;2023-02-19T06:34:13;5.25;;;4.28;;
26574;SDS011;67165;50.256;10.978;2023-02-19T06:36:39;6.68;;;5.10;;
26574;SDS011;67165;50.256;10.978;2023-02-19T06:39:05;6.80;;;4.88;;
26574;SDS011;67165;50.256;10.978;2023-02-19T06:41:31;5.00;;;4.03;;
26574;SDS011;67165;50.256;10.978;2023-02-19T06:43:57;5.82;;;4.35;;
26574;SDS011;67165;50.256;10.978;2023-02-19T06:46:23;7.13;;;4.70;;
26574;SDS011;67165;50.256;10.978;2023-02-19T06:48:48;4.88;;;4.25;;
26574;SDS011;67165;50.256;10.978;2023-02-19T06:51:15;5.00;;;4.13;;
26574;SDS011;67165;50.256;10.978;2023-02-19T06:53:44;5.78;;;4.60;;
26574;SDS011;67165;50.256;10.978;2023-02-19T06:59:12;5.97;;;4.45;;
26574;SDS011;67165;50.256;10.978;2023-02-19T07:01:41;4.57;;;3.50;;
26574;SDS011;67165;50.256;10.978;2023-02-19T07:04:08;6.47;;;4.45;;
26574;SDS011;67165;50.256;10.978;2023-02-19T07:06:34;5.72;;;4.97;;
26574;SDS011;67165;50.256;10.978;2023-02-19T07:09:00;6.93;;;4.07;;
26574;SDS011;67165;50.256;10.978;2023-02-19T07:11:31;4.13;;;3.45;;
26574;SDS011;67165;50.256;10.978;2023-02-19T07:13:58;4.43;;;3.72;;
26574;SDS011;67165;50.256;10.978;2023-02-19T07:16:27;6.55;;;4.22;;
26574;SDS011;67165;50.256;10.978;2023-02-19T07:18:56;5.50;;;3.80;;
26574;SDS011;67165;50.256;10.978;2023-02-19T07:21:23;4.43;;;3.50;;
26574;SDS011;67165;50.256;10.978;2023-02-19T07:23:49;4.15;;;2.90;;
26574;SDS011;67165;50.256;10.978;2023-02-19T07:26:15;4.75;;;3.60;;
26574;SDS011;67165;50.256;10.978;2023-02-19T07:28:45;3.90;;;3.42;;
26574;SDS011;67165;50.256;10.978;2023-02-19T07:31:13;3.85;;;3.13;;
26574;SDS011;67165;50.256;10.978;2023-02-19T07:33:41;4.57;;;3.00;;
26574;SDS011;67165;50.256;10.978;2023-02-19T07:36:08;3.13;;;2.50;;
26574;SDS011;67165;50.256;10.978;2023-02-19T07:38:34;3.50;;;2.30;;
26574;SDS011;67165;50.256;10.978;2023-02-19T07:41:00;2.80;;;2.50;;
26574;SDS011;67165;50.256;10.978;2023-02-19T07:43:29;3.78;;;2.55;;
26574;SDS011;67165;50.256;10.978;2023-02-19T07:45:57;4.28;;;2.65;;
26574;SDS011;67165;50.256;10.978;2023-02-19T07:48:26;2.65;;;2.40;;
26574;SDS011;67165;50.256;10.978;2023-02-19T07:50:55;3.13;;;2.50;;
26574;SDS011;67165;50.256;10.978;2023-02-19T07:53:22;4.00;;;2.60;;
26574;SDS011;67165;50.256;10.978;2023-02-19T07:55:49;3.03;;;2.45;;
26574;SDS011;67165;50.256;10.978;2023-02-19T07:58:15;2.70;;;2.40;;
26574;SDS011;67165;50.256;10.978;2023-02-19T08:00:41;3.15;;;2.78;;
26574;SDS011;67165;50.256;10.978;2023-02-19T08:03:07;2.80;;;2.50;;
26574;SDS011;67165;50.256;10.978;2023-02-19T08:05:33;4.35;;;3.10;;
26574;SDS011;67165;50.256;10.978;2023-02-19T08:08:02;5.53;;;2.95;;
26574;SDS011;67165;50.256;10.978;2023-02-19T08:10:30;5.72;;;2.70;;
26574;SDS011;67165;50.256;10.978;2023-02-19T08:13:15;2.95;;;2.20;;
26574;SDS011;67165;50.256;10.978;2023-02-19T08:15:44;4.70;;;2.20;;
26574;SDS011;67165;50.256;10.978;2023-02-19T08:18:12;3.00;;;2.40;;
26574;SDS011;67165;50.256;10.978;2023-02-19T08:20:39;3.15;;;2.55;;
26574;SDS011;67165;50.256;10.978;2023-02-19T08:23:05;4.50;;;2.72;;
26574;SDS011;67165;50.256;10.978;2023-02-19T08:25:31;3.55;;;2.53;;
26574;SDS011;67165;50.256;10.978;2023-02-19T08:27:57;3.17;;;2.50;;
26574;SDS011;67165;50.256;10.978;2023-02-19T08:30:24;3.78;;;2.50;;
26574;SDS011;67165;50.256;10.978;2023-02-19T08:32:51;2.75;;;2.40;;
26574;SDS011;67165;50.256;10.978;2023-02-19T08:35:16;3.28;;;2.47;;
26574;SDS011;67165;50.256;10.978;2023-02-19T08:37:42;4.05;;;2.65;;
26574;SDS011;67165;50.256;10.978;2023-02-19T08:40:08;3.60;;;2.50;;
26574;SDS011;67165;50.256;10.978;2023-02-19T08:42:34;3.95;;;3.00;;
26574;SDS011;67165;50.256;10.978;2023-02-19T08:44:59;4.50;;;3.30;;
26574;SDS011;67165;50.256;10.978;2023-02-19T08:47:25;4.53;;;3.17;;
26574;SDS011;67165;50.256;10.978;2023-02-19T08:49:51;3.38;;;2.60;;
26574;SDS011;67165;50.256;10.978;2023-02-19T08:52:16;4.78;;;3.00;;
26574;SDS011;67165;50.256;10.978;2023-02-19T08:54:42;3.47;;;2.45;;
26574;SDS011;67165;50.256;10.978;2023-02-19T08:57:07;3.67;;;3.03;;
26574;SDS011;67165;50.256;10.978;2023-02-19T08:59:33;3.53;;;2.78;;
26574;SDS011;67165;50.256;10.978;2023-02-19T09:01:59;4.35;;;2.97;;
26574;SDS011;67165;50.256;10.978;2023-02-19T09:04:24;4.03;;;2.65;;
26574;SDS011;67165;50.256;10.978;2023-02-19T09:06:50;3.33;;;2.63;;
26574;SDS011;67165;50.256;10.978;2023-02-19T09:09:16;4.35;;;2.70;;
26574;SDS011;67165;50.256;10.978;2023-02-19T09:11:41;6.90;;;2.92;;
26574;SDS011;67165;50.256;10.978;2023-02-19T09:14:07;4.18;;;3.30;;
26574;SDS011;67165;50.256;10.978;2023-02-19T09:16:33;5.93;;;3.10;;
26574;SDS011;67165;50.256;10.978;2023-02-19T09:18:59;5.97;;;3.40;;
26574;SDS011;67165;50.256;10.978;2023-02-19T09:21:25;4.47;;;3.28;;
26574;SDS011;67165;50.256;10.978;2023-02-19T09:23:51;4.75;;;3.05;;
26574;SDS011;67165;50.256;10.978;2023-02-19T09:26:17;4.38;;;3.00;;
26574;SDS011;67165;50.256;10.978;2023-02-19T09:28:43;4.45;;;2.80;;
26574;SDS011;67165;50.256;10.978;2023-02-19T09:31:09;5.43;;;3.00;;
26574;SDS011;67165;50.256;10.978;2023-02-19T09:33:37;3.58;;;2.80;;
26574;SDS011;67165;50.256;10.978;2023-02-19T09:36:05;5.25;;;2.92;;
26574;SDS011;67165;50.256;10.978;2023-02-19T09:38:31;3.70;;;2.50;;
26574;SDS011;67165;50.256;10.978;2023-02-19T09:40:57;5.00;;;3.10;;
26574;SDS011;67165;50.256;10.978;2023-02-19T09:43:29;4.03;;;2.50;;
26574;SDS011;67165;50.256;10.978;2023-02-19T09:46:03;3.05;;;2.20;;
26574;SDS011;67165;50.256;10.978;2023-02-19T09:48:36;2.58;;;1.98;;
26574;SDS011;67165;50.256;10.978;2023-02-19T09:51:01;3.13;;;2.08;;
26574;SDS011;67165;50.256;10.978;2023-02-19T09:53:29;3.55;;;2.15;;
26574;SDS011;67165;50.256;10.978;2023-02-19T09:56:04;2.35;;;1.63;;
26574;SDS011;67165;50.256;10.978;2023-02-19T09:58:34;2.55;;;1.90;;
26574;SDS011;67165;50.256;10.978;2023-02-19T10:01:07;3.30;;;2.00;;
26574;SDS011;67165;50.256;10.978;2023-02-19T10:03:39;2.60;;;1.85;;
26574;SDS011;67165;50.256;10.978;2023-02-19T10:08:46;1.60;;;1.40;;
26574;SDS011;67165;50.256;10.978;2023-02-19T10:11:16;2.15;;;1.70;;
26574;SDS011;67165;50.256;10.978;2023-02-19T10:16:12;2.20;;;1.70;;
26574;SDS011;67165;50.256;10.978;2023-02-19T10:18:42;5.35;;;2.75;;
26574;SDS011;67165;50.256;10.978;2023-02-19T10:21:18;3.45;;;2.35;;
26574;SDS011;67165;50.256;10.978;2023-02-19T10:23:47;2.15;;;1.77;;
26574;SDS011;67165;50.256;10.978;2023-02-19T10:26:16;2.75;;;1.73;;
26574;SDS011;67165;50.256;10.978;2023-02-19T10:28:42;3.65;;;2.20;;
26574;SDS011;67165;50.256;10.978;2023-02-19T10:31:15;3.47;;;2.55;;
26574;SDS011;67165;50.256;10.978;2023-02-19T10:33:53;2.88;;;2.50;;
26574;SDS011;67165;50.256;10.978;2023-02-19T10:36:27;4.03;;;3.00;;
26574;SDS011;67165;50.256;10.978;2023-02-19T10:38:55;3.75;;;2.38;;
26574;SDS011;67165;50.256;10.978;2023-02-19T10:41:22;3.30;;;2.35;;
26574;SDS011;67165;50.256;10.978;2023-02-19T10:46:22;2.45;;;2.25;;
26574;SDS011;67165;50.256;10.978;2023-02-19T10:48:51;3.45;;;2.50;;
26574;SDS011;67165;50.256;10.978;2023-02-19T10:51:44;6.47;;;2.78;;
26574;SDS011;67165;50.256;10.978;2023-02-19T10:54:16;6.13;;;3.13;;
26574;SDS011;67165;50.256;10.978;2023-02-19T10:56:44;4.95;;;2.80;;
26574;SDS011;67165;50.256;10.978;2023-02-19T11:01:39;4.65;;;2.63;;
26574;SDS011;67165;50.256;10.978;2023-02-19T11:04:28;4.10;;;2.38;;
26574;SDS011;67165;50.256;10.978;2023-02-19T11:06:58;3.90;;;2.42;;
26574;SDS011;67165;50.256;10.978;2023-02-19T11:09:39;4.40;;;2.75;;
26574;SDS011;67165;50.256;10.978;2023-02-19T11:12:09;3.70;;;2.38;;
26574;SDS011;67165;50.256;10.978;2023-02-19T11:14:36;3.35;;;2.47;;
26574;SDS011;67165;50.256;10.978;2023-02-19T11:17:15;4.07;;;2.47;;
26574;SDS011;67165;50.256;10.978;2023-02-19T11:19:52;5.07;;;2.40;;
26574;SDS011;67165;50.256;10.978;2023-02-19T11:22:33;13.75;;;7.00;;
26574;SDS011;67165;50.256;10.978;2023-02-19T11:25:05;5.95;;;3.30;;
26574;SDS011;67165;50.256;10.978;2023-02-19T11:33:12;4.53;;;3.17;;
26574;SDS011;67165;50.256;10.978;2023-02-19T11:35:44;6.13;;;3.42;;
26574;SDS011;67165;50.256;10.978;2023-02-19T11:38:12;5.53;;;3.67;;
26574;SDS011;67165;50.256;10.978;2023-02-19T11:40:43;5.97;;;3.92;;
26574;SDS011;67165;50.256;10.978;2023-02-19T11:46:08;4.75;;;3.28;;
26574;SDS011;67165;50.256;10.978;2023-02-19T11:48:59;6.13;;;3.58;;
26574;SDS011;67165;50.256;10.978;2023-02-19T11:51:50;4.70;;;2.53;;
26574;SDS011;67165;50.256;10.978;2023-02-19T11:54:40;3.83;;;2.80;;
26574;SDS011;67165;50.256;10.978;2023-02-19T12:11:30;5.90;;;4.32;;
26574;SDS011;67165;50.256;10.978;2023-02-19T12:32:54;13.20;;;9.20;;
26574;SDS011;67165;50.256;10.978;2023-02-19T12:43:49;2.22;;;1.52;;
26574;SDS011;67165;50.256;10.978;2023-02-19T12:46:24;5.82;;;2.00;;
26574;SDS011;67165;50.256;10.978;2023-02-19T12:48:57;2.67;;;1.90;;
26574;SDS011;67165;50.256;10.978;2023-02-19T12:51:36;3.08;;;2.00;;
26574;SDS011;67165;50.256;10.978;2023-02-19T12:54:18;4.13;;;1.90;;
26574;SDS011;67165;50.256;10.978;2023-02-19T12:57:01;3.17;;;1.92;;
26574;SDS011;67165;50.256;10.978;2023-02-19T13:02:17;4.15;;;2.05;;
26574;SDS011;67165;50.256;10.978;2023-02-19T13:13:14;3.50;;;2.22;;
26574;SDS011;67165;50.256;10.978;2023-02-19T13:15:51;2.72;;;2.17;;
26574;SDS011;67165;50.256;10.978;2023-02-19T13:18:28;3.70;;;2.30;;
26574;SDS011;67165;50.256;10.978;2023-02-19T13:20:59;4.88;;;2.75;;
26574;SDS011;67165;50.256;10.978;2023-02-19T13:23:27;4.63;;;3.10;;
26574;SDS011;67165;50.256;10.978;2023-02-19T13:26:18;6.53;;;3.95;;
26574;SDS011;67165;50.256;10.978;2023-02-19T13:29:51;4.78;;;3.13;;
26574;SDS011;67165;50.256;10.978;2023-02-19T13:32:13;5.75;;;2.70;;
26574;SDS011;67165;50.256;10.978;2023-02-19T13:37:25;6.25;;;3.67;;
26574;SDS011;67165;50.256;10.978;2023-02-19T13:39:55;5.57;;;4.07;;
26574;SDS011;67165;50.256;10.978;2023-02-19T13:42:25;10.10;;;5.00;;
26574;SDS011;67165;50.256;10.978;2023-02-19T13:44:52;5.07;;;3.10;;
26574;SDS011;67165;50.256;10.978;2023-02-19T13:50:33;9.23;;;5.40;;
26574;SDS011;67165;50.256;10.978;2023-02-19T13:52:59;7.68;;;5.13;;
26574;SDS011;67165;50.256;10.978;2023-02-19T14:01:01;3.28;;;2.70;;
26574;SDS011;67165;50.256;10.978;2023-02-19T14:06:18;6.70;;;4.70;;
26574;SDS011;67165;50.256;10.978;2023-02-19T14:11:13;4.57;;;3.05;;
26574;SDS011;67165;50.256;10.978;2023-02-19T14:16:28;5.47;;;3.42;;
26574;SDS011;67165;50.256;10.978;2023-02-19T14:18:55;8.73;;;4.63;;
26574;SDS011;67165;50.256;10.978;2023-02-19T14:21:24;5.95;;;3.78;;
26574;SDS011;67165;50.256;10.978;2023-02-19T14:23:59;4.30;;;3.03;;
26574;SDS011;67165;50.256;10.978;2023-02-19T14:26:26;3.90;;;2.55;;
26574;SDS011;67165;50.256;10.978;2023-02-19T14:28:54;5.22;;;3.60;;
26574;SDS011;67165;50.256;10.978;2023-02-19T14:36:43;8.25;;;4.20;;
26574;SDS011;67165;50.256;10.978;2023-02-19T14:39:16;11.57;;;5.75;;
26574;SDS011;67165;50.256;10.978;2023-02-19T14:41:52;4.40;;;3.30;;
26574;SDS011;67165;50.256;10.978;2023-02-19T14:44:28;7.97;;;5.07;;
26574;SDS011;67165;50.256;10.978;2023-02-19T14:46:57;6.55;;;4.45;;
26574;SDS011;67165;50.256;10.978;2023-02-19T14:52:12;2.95;;;2.10;;
26574;SDS011;67165;50.256;10.978;2023-02-19T14:55:46;2.60;;;1.70;;
26574;SDS011;67165;50.256;10.978;2023-02-19T14:57:46;2.75;;;2.20;;
26574;SDS011;67165;50.256;10.978;2023-02-19T15:02:52;2.30;;;1.80;;
26574;SDS011;67165;50.256;10.978;2023-02-19T15:07:53;4.22;;;3.03;;
26574;SDS011;67165;50.256;10.978;2023-02-19T15:10:21;4.60;;;3.47;;
26574;SDS011;67165;50.256;10.978;2023-02-19T15:12:55;7.30;;;4.28;;
26574;SDS011;67165;50.256;10.978;2023-02-19T15:15:28;3.38;;;2.47;;
26574;SDS011;67165;50.256;10.978;2023-02-19T15:17:57;3.95;;;2.50;;
26574;SDS011;67165;50.256;10.978;2023-02-19T15:20:26;2.60;;;2.00;;
26574;SDS011;67165;50.256;10.978;2023-02-19T15:22:55;5.13;;;2.30;;
26574;SDS011;67165;50.256;10.978;2023-02-19T15:25:24;2.35;;;2.10;;
26574;SDS011;67165;50.256;10.978;2023-02-19T15:27:56;2.53;;;2.10;;
26574;SDS011;67165;50.256;10.978;2023-02-19T15:30:47;2.67;;;2.20;;
26574;SDS011;67165;50.256;10.978;2023-02-19T15:33:15;2.88;;;2.25;;
26574;SDS011;67165;50.256;10.978;2023-02-19T15:35:46;4.00;;;2.70;;
26574;SDS011;67165;50.256;10.978;2023-02-19T15:40:45;5.80;;;3.00;;
26574;SDS011;67165;50.256;10.978;2023-02-19T15:43:18;3.78;;;2.55;;
26574;SDS011;67165;50.256;10.978;2023-02-19T15:45:47;4.05;;;2.85;;
26574;SDS011;67165;50.256;10.978;2023-02-19T15:48:17;7.25;;;5.07;;
26574;SDS011;67165;50.256;10.978;2023-02-19T15:50:46;5.70;;;4.68;;
26574;SDS011;67165;50.256;10.978;2023-02-19T15:53:23;3.35;;;2.85;;
26574;SDS011;67165;50.256;10.978;2023-02-19T16:04:11;2.40;;;2.10;;
26574;SDS011;67165;50.256;10.978;2023-02-19T16:06:55;3.40;;;2.70;;
26574;SDS011;67165;50.256;10.978;2023-02-19T16:12:02;2.90;;;2.20;;
26574;SDS011;67165;50.256;10.978;2023-02-19T16:14:43;8.45;;;5.78;;
26574;SDS011;67165;50.256;10.978;2023-02-19T16:19:41;8.57;;;6.45;;
26574;SDS011;67165;50.256;10.978;2023-02-19T16:22:12;4.80;;;3.70;;
26574;SDS011;67165;50.256;10.978;2023-02-19T16:24:43;5.70;;;3.57;;
26574;SDS011;67165;50.256;10.978;2023-02-19T16:27:11;8.38;;;6.20;;
26574;SDS011;67165;50.256;10.978;2023-02-19T16:29:38;4.60;;;3.45;;
26574;SDS011;67165;50.256;10.978;2023-02-19T16:32:05;9.13;;;4.78;;
26574;SDS011;67165;50.256;10.978;2023-02-19T16:45:41;5.00;;;4.18;;
26574;SDS011;67165;50.256;10.978;2023-02-19T16:48:11;5.57;;;3.72;;
26574;SDS011;67165;50.256;10.978;2023-02-19T16:50:38;4.07;;;2.28;;
26574;SDS011;67165;50.256;10.978;2023-02-19T16:53:12;2.80;;;2.00;;
26574;SDS011;67165;50.256;10.978;2023-02-19T16:55:52;3.50;;;2.13;;
26574;SDS011;67165;50.256;10.978;2023-02-19T16:58:18;3.45;;;1.90;;
26574;SDS011;67165;50.256;10.978;2023-02-19T17:00:44;2.80;;;1.90;;
26574;SDS011;67165;50.256;10.978;2023-02-19T17:03:10;3.65;;;2.03;;
26574;SDS011;67165;50.256;10.978;2023-02-19T17:05:41;4.93;;;2.72;;
26574;SDS011;67165;50.256;10.978;2023-02-19T17:10:47;4.70;;;2.75;;
26574;SDS011;67165;50.256;10.978;2023-02-19T17:13:13;4.53;;;2.75;;
26574;SDS011;67165;50.256;10.978;2023-02-19T17:15:38;5.25;;;3.25;;
26574;SDS011;67165;50.256;10.978;2023-02-19T17:18:04;5.50;;;3.30;;
26574;SDS011;67165;50.256;10.978;2023-02-19T17:20:30;4.55;;;2.78;;
26574;SDS011;67165;50.256;10.978;2023-02-19T17:22:57;5.28;;;2.72;;
26574;SDS011;67165;50.256;10.978;2023-02-19T17:25:23;6.05;;;2.70;;
26574;SDS011;67165;50.256;10.978;2023-02-19T17:27:48;10.20;;;4.75;;
26574;SDS011;67165;50.256;10.978;2023-02-19T17:30:19;11.82;;;5.75;;
26574;SDS011;67165;50.256;10.978;2023-02-19T17:32:47;7.80;;;4.50;;
26574;SDS011;67165;50.256;10.978;2023-02-19T17:35:13;8.07;;;5.22;;
26574;SDS011;67165;50.256;10.978;2023-02-19T17:37:39;8.98;;;5.88;;
26574;SDS011;67165;50.256;10.978;2023-02-19T17:40:10;10.15;;;7.30;;